Historyczne dane pomiarowe

Dodano dane terminowe – wersja testowa.

Dane z okresu 1951-2019

Wersja bazy: 1.34 [2019-03-16, lista zmian], aktualizacja planowana na 2019-04-15

Dane meteo z obszaru Polski uzyskane na podstawie danych udostępnionych przez Instytut Meteorologii i Gospodarki Wodnej – Państwowy Instytut Badawczy.

 

Wybierz Datę:    

       

TemperaturaWilgotnośćZachmurzenieWiatrCiśnienieWidzialnośćZjawiska
 Data    tng td wb rh cc ccl cl cm ch dir g1 g2 mslp ppp      
2002-09-26 00:00:00 1.5--- -1.1 0.583wxwx1wx--1010.9 987.8 0.0---wx
2002-09-26 01:00:00 0.5--- -1.3 -0.288wxwx0wx--1010.6 987.5----wx
2002-09-26 02:00:00 0.1--- -1.5 -0.589wxwx0wx--1010.7 987.5----wx
2002-09-26 03:00:00 -1.2--- -2.0 -1.594wxwx2wx--1009.9 986.6----wx
2002-09-26 04:00:00 -0.9--- -2.4 -1.490wxwxwx2wx--1009.8 986.6----wx
2002-09-26 05:00:00 -0.5--- -1.9 -1.090wxwxwx2wx--1010.2 987.0----wx
2002-09-26 06:00:00 2.7--- 0.3 1.784wxwxwx2wx--1010.0 987.1 0.0---wx
2002-09-26 07:00:00 8.1--- 0.8 4.960wxwxwx2wx--1009.8 987.3----wx
2002-09-26 08:00:00 12.7--- 1.5 7.546wxwxwxwx3wx--1009.2 987.1----wx
2002-09-26 09:00:00 11.9--- 1.2 7.048wxwxwxwx3wx--1009.3 987.1----wx
2002-09-26 10:00:00 11.6--- 1.3 6.949wxwxwxwx4wx--1009.1 986.9----wx
2002-09-26 11:00:00 12.2--- 2.2 7.550wxwxwxwx4wx--1008.8 986.6----wx
2002-09-26 12:00:00 12.8--- 2.5 7.949wxwxwxwx2wx--1008.4 986.3 0.0---wx
2002-09-26 13:00:00 13.0--- 1.4 7.645wxwxwxwx4wx--1008.3 986.2----wx
2002-09-26 14:00:00 13.2--- 2.5 8.148wxwxwxwx3wx--1008.4 986.3----wx
2002-09-26 15:00:00 13.0--- 2.7 8.150wxwxwxwx3wx--1008.4 986.3----wx
2002-09-26 16:00:00 11.4--- 3.7 7.759wxwxwxwx3wx--1008.5 986.3----wx
2002-09-26 17:00:00 9.4--- 3.7 6.768wxwxwx2wx--1008.9 986.5----wx
2002-09-26 18:00:00 8.6--- 4.2 6.574wxwxwx2wx--1009.2 986.7 0.0---wx
2002-09-26 19:00:00 7.9--- 4.1 6.177wxwxwx1wx--1009.3 986.8----wx
2002-09-26 20:00:00 8.1--- 4.8 6.580wxwxwx2wx--1009.5 987.0----wx
2002-09-26 21:00:00 7.4--- 4.5 6.082wxwxwx2wx--1009.7 987.1----wx
2002-09-26 22:00:00 8.1--- 4.8 6.580wxwxwx2wx--1009.6 987.1----wx
2002-09-26 23:00:00 8.1--- 5.0 6.681wxwxwx2wx--1009.5 987.0----wx

 

Źródłem pochodzenia danych jest Instytut Meteorologii i Gospodarki Wodnej – Państwowy Instytut Badawczy. Dane Instytutu Meteorologii i Gospodarki Wodnej – Państwowego Instytutu Badawczego zostały przetworzone.

Dane źródłowe można odnaleźć na stronie https://dane.imgw.pl